Time;durP1;ratioP1;P1;durP2;ratioP2;P2;SDS_P1;SDS_P2;PMS_P1;PMS_P2;Temp;Humidity;BMP_temperature;BMP_pressure;BME280_temperature;BME280_humidity;BME280_pressure;Samples;Min_cycle;Max_cycle;Signal;HPM_P1;HPM_P2
2023/03/22 00:01:07;;;;;;;18.08;3.95;;;;;;;;;;5035960;28;20119;-74
2023/03/22 00:03:34;;;;;;;13.68;3.35;;;;;;;;;;5045212;28;20056;-75
2023/03/22 00:06:00;;;;;;;9.27;3.60;;;;;;;;;;5030382;28;20398;-75
2023/03/22 00:08:26;;;;;;;12.70;4.43;;;;;;;;;;5035290;28;20407;-75
2023/03/22 00:10:52;;;;;;;13.73;3.22;;;;;;;;;;5026491;28;20068;-75
2023/03/22 00:13:18;;;;;;;13.77;3.53;;;;;;;;;;5034622;28;20476;-75
2023/03/22 00:15:47;;;;;;;14.10;3.30;;;;;;;;;;5027286;28;20060;-74
2023/03/22 00:18:13;;;;;;;15.88;3.65;;;;;;;;;;5029938;28;20477;-74
2023/03/22 00:20:46;;;;;;;18.55;3.88;;;;;;;;;;5022738;28;20400;-74
2023/03/22 00:23:12;;;;;;;17.20;3.65;;;;;;;;;;5035633;28;20186;-74
2023/03/22 00:25:38;;;;;;;14.93;3.85;;;;;;;;;;5042230;28;20127;-74
2023/03/22 00:28:04;;;;;;;11.48;3.95;;;;;;;;;;5026898;28;20115;-74
2023/03/22 00:30:30;;;;;;;19.20;4.10;;;;;;;;;;5040736;28;20048;-74
2023/03/22 00:32:56;;;;;;;11.38;3.35;;;;;;;;;;5024609;28;20033;-74
2023/03/22 00:35:22;;;;;;;13.63;2.80;;;;;;;;;;5026210;28;20494;-73
2023/03/22 00:37:49;;;;;;;10.82;3.63;;;;;;;;;;5037475;28;20045;-73
2023/03/22 00:40:15;;;;;;;14.45;3.58;;;;;;;;;;5015928;28;20544;-73
2023/03/22 00:42:41;;;;;;;16.77;3.58;;;;;;;;;;5022002;28;20471;-73
2023/03/22 00:45:09;;;;;;;13.30;2.90;;;;;;;;;;5042971;28;20045;-73
2023/03/22 00:47:35;;;;;;;10.95;3.63;;;;;;;;;;5043116;28;20067;-73
2023/03/22 00:50:01;;;;;;;12.77;3.03;;;;;;;;;;5030175;28;20037;-74
2023/03/22 00:52:28;;;;;;;11.00;2.95;;;;;;;;;;5014127;28;20512;-73
2023/03/22 00:54:54;;;;;;;10.45;2.83;;;;;;;;;;5027066;28;20064;-73
2023/03/22 00:57:21;;;;;;;13.73;3.42;;;;;;;;;;5038597;28;20056;-73
2023/03/22 00:59:47;;;;;;;12.57;3.63;;;;;;;;;;5036249;28;20041;-73
2023/03/22 01:02:13;;;;;;;10.63;4.82;;;;;;;;;;5028754;28;20128;-73
2023/03/22 01:04:45;;;;;;;11.18;2.97;;;;;;;;;;5035112;28;20097;-73
2023/03/22 01:07:16;;;;;;;13.02;2.80;;;;;;;;;;5016829;28;20045;-73
2023/03/22 01:09:42;;;;;;;11.10;3.15;;;;;;;;;;5024429;28;20053;-73
2023/03/22 01:12:08;;;;;;;14.32;2.88;;;;;;;;;;5051294;28;20045;-73
2023/03/22 01:14:34;;;;;;;10.68;3.03;;;;;;;;;;5024924;28;20049;-73
2023/03/22 01:17:00;;;;;;;14.63;2.97;;;;;;;;;;5040024;28;20176;-74
2023/03/22 01:19:26;;;;;;;6.45;2.53;;;;;;;;;;5025086;28;20053;-73
2023/03/22 01:21:53;;;;;;;12.93;3.28;;;;;;;;;;5014340;28;20045;-73
2023/03/22 01:24:19;;;;;;;9.95;2.70;;;;;;;;;;5049388;28;20048;-73
2023/03/22 01:26:45;;;;;;;9.82;2.70;;;;;;;;;;5042283;28;20049;-73
2023/03/22 01:29:12;;;;;;;8.73;2.60;;;;;;;;;;5036798;28;20041;-73
2023/03/22 01:31:38;;;;;;;11.23;2.70;;;;;;;;;;5021016;28;20056;-73
2023/03/22 01:34:04;;;;;;;8.95;3.03;;;;;;;;;;5015933;28;20079;-73
2023/03/22 01:36:30;;;;;;;9.48;2.88;;;;;;;;;;5038476;28;20049;-73
2023/03/22 01:38:56;;;;;;;10.23;3.97;;;;;;;;;;5012144;28;20061;-73
2023/03/22 01:41:22;;;;;;;10.93;3.38;;;;;;;;;;5020779;28;20049;-73
2023/03/22 01:44:07;;;;;;;8.85;2.58;;;;;;;;;;5035070;28;20045;-73
2023/03/22 01:46:33;;;;;;;10.15;3.38;;;;;;;;;;5041572;28;20033;-73
2023/03/22 01:49:00;;;;;;;10.80;2.67;;;;;;;;;;5034843;28;20489;-73
2023/03/22 01:51:27;;;;;;;5.30;2.35;;;;;;;;;;5010887;28;20045;-73
2023/03/22 01:53:59;;;;;;;7.30;2.30;;;;;;;;;;5034114;28;20049;-74
2023/03/22 01:56:26;;;;;;;7.50;2.38;;;;;;;;;;5041486;28;20052;-73
2023/03/22 01:58:53;;;;;;;7.82;2.50;;;;;;;;;;5011308;28;20069;-73
2023/03/22 02:01:19;;;;;;;8.05;2.40;;;;;;;;;;5010941;28;20095;-73
2023/03/22 02:04:05;;;;;;;5.75;2.25;;;;;;;;;;5041781;28;20041;-73
2023/03/22 02:06:36;;;;;;;6.72;2.40;;;;;;;;;;5041081;28;20090;-74
2023/03/22 02:09:04;;;;;;;9.25;2.72;;;;;;;;;;5039325;28;20657;-73
2023/03/22 02:11:33;;;;;;;8.35;2.53;;;;;;;;;;5046471;28;20095;-73
2023/03/22 02:14:21;;;;;;;6.95;2.30;;;;;;;;;;5037789;28;20041;-74
2023/03/22 02:17:07;;;;;;;7.40;2.70;;;;;;;;;;5016590;28;20049;-74
2023/03/22 02:19:41;;;;;;;7.45;2.13;;;;;;;;;;5023737;28;20511;-74
2023/03/22 02:22:08;;;;;;;;;;;;;;;;;;5034757;28;20504;-73
2023/03/22 02:24:46;;;;;;;8.13;2.30;;;;;;;;;;5020427;28;20012;-73
2023/03/22 02:27:25;;;;;;;7.15;2.15;;;;;;;;;;5024850;28;20115;-73
2023/03/22 02:30:00;;;;;;;6.35;2.55;;;;;;;;;;5023220;28;20100;-73
2023/03/22 02:32:38;;;;;;;6.25;2.40;;;;;;;;;;5031205;28;20072;-73
2023/03/22 02:35:10;;;;;;;6.85;2.20;;;;;;;;;;5019310;28;20057;-74
2023/03/22 02:37:48;;;;;;;4.93;2.25;;;;;;;;;;5029850;28;20057;-74
2023/03/22 02:40:16;;;;;;;6.32;2.20;;;;;;;;;;5025768;28;20401;-73
2023/03/22 02:42:54;;;;;;;6.15;2.17;;;;;;;;;;5039531;28;20047;-73
2023/03/22 02:45:26;;;;;;;8.02;2.65;;;;;;;;;;5025340;28;20064;-73
2023/03/22 02:47:59;;;;;;;9.20;2.50;;;;;;;;;;5020475;28;20077;-74
2023/03/22 02:50:30;;;;;;;8.05;2.53;;;;;;;;;;5039717;28;20052;-73
2023/03/22 02:53:09;;;;;;;9.57;2.83;;;;;;;;;;5022735;28;20477;-73
2023/03/22 02:55:40;;;;;;;7.70;2.58;;;;;;;;;;5040525;28;20382;-73
2023/03/22 02:58:10;;;;;;;8.90;2.80;;;;;;;;;;5041925;28;20045;-73
2023/03/22 03:00:37;;;;;;;6.75;2.70;;;;;;;;;;5017101;28;24163;-73
2023/03/22 03:03:10;;;;;;;9.02;3.30;;;;;;;;;;5015373;28;20489;-74
2023/03/22 03:05:37;;;;;;;8.23;2.83;;;;;;;;;;5039355;28;20045;-74
2023/03/22 03:08:03;;;;;;;10.45;3.00;;;;;;;;;;5014427;28;20122;-74
2023/03/22 03:10:30;;;;;;;8.38;2.90;;;;;;;;;;5040303;28;20091;-74
2023/03/22 03:12:57;;;;;;;7.82;2.80;;;;;;;;;;5038175;28;20041;-73
2023/03/22 03:15:24;;;;;;;11.45;3.60;;;;;;;;;;5037206;28;20040;-74
2023/03/22 03:17:54;;;;;;;10.35;3.25;;;;;;;;;;5018041;28;20045;-74
2023/03/22 03:20:20;;;;;;;10.05;3.20;;;;;;;;;;5013432;28;20519;-73
2023/03/22 03:23:06;;;;;;;11.57;4.00;;;;;;;;;;5040501;28;20094;-74
2023/03/22 03:25:42;;;;;;;11.20;3.35;;;;;;;;;;5036488;28;21575;-74
2023/03/22 03:28:17;;;;;;;8.15;3.40;;;;;;;;;;5020356;28;20065;-73
2023/03/22 03:30:56;;;;;;;9.73;3.50;;;;;;;;;;5020271;28;20136;-74
2023/03/22 03:33:24;;;;;;;9.95;3.67;;;;;;;;;;5016461;28;20120;-74
2023/03/22 03:35:53;;;;;;;18.45;4.03;;;;;;;;;;5016846;28;20720;-73
2023/03/22 03:38:22;;;;;;;12.23;4.95;;;;;;;;;;5013825;28;20501;-73
2023/03/22 03:40:50;;;;;;;13.23;4.75;;;;;;;;;;5037637;28;20551;-73
2023/03/22 03:43:17;;;;;;;8.23;3.65;;;;;;;;;;5017386;28;20060;-73
2023/03/22 03:45:43;;;;;;;9.77;4.20;;;;;;;;;;5042720;28;20132;-73
2023/03/22 03:48:20;;;;;;;15.07;4.05;;;;;;;;;;5042441;28;20124;-74
2023/03/22 03:50:49;;;;;;;9.52;3.70;;;;;;;;;;5037038;28;20045;-74
2023/03/22 03:53:15;;;;;;;12.95;4.38;;;;;;;;;;5017659;28;20169;-74
2023/03/22 03:55:41;;;;;;;14.43;4.65;;;;;;;;;;5027289;28;20119;-73
2023/03/22 03:58:08;;;;;;;8.52;3.65;;;;;;;;;;5028269;28;20083;-74
2023/03/22 04:00:35;;;;;;;12.52;4.00;;;;;;;;;;5015601;28;21653;-74
2023/03/22 04:03:01;;;;;;;13.30;4.20;;;;;;;;;;5013751;28;20659;-73
2023/03/22 04:05:27;;;;;;;7.22;3.80;;;;;;;;;;5038158;28;20045;-74
2023/03/22 04:07:53;;;;;;;14.65;3.90;;;;;;;;;;5033733;28;20471;-74
2023/03/22 04:10:19;;;;;;;14.73;4.25;;;;;;;;;;5014389;28;21927;-74
2023/03/22 04:12:45;;;;;;;16.40;4.78;;;;;;;;;;5040781;28;20478;-74
2023/03/22 04:15:11;;;;;;;15.77;4.20;;;;;;;;;;5040530;28;20413;-73
2023/03/22 04:17:38;;;;;;;8.77;4.32;;;;;;;;;;5029959;28;20049;-74
2023/03/22 04:20:05;;;;;;;13.02;4.65;;;;;;;;;;5032121;28;20060;-73
2023/03/22 04:22:33;;;;;;;10.95;4.60;;;;;;;;;;5033364;28;20473;-74
2023/03/22 04:25:00;;;;;;;13.45;5.13;;;;;;;;;;5042982;28;20045;-74
2023/03/22 04:27:26;;;;;;;13.90;5.20;;;;;;;;;;5024386;28;20755;-73
2023/03/22 04:29:53;;;;;;;12.57;5.22;;;;;;;;;;5015668;28;20080;-74
2023/03/22 04:32:21;;;;;;;11.10;5.53;;;;;;;;;;5032794;28;20107;-74
2023/03/22 04:34:51;;;;;;;16.75;5.00;;;;;;;;;;5015146;28;20053;-73
2023/03/22 04:37:18;;;;;;;14.30;5.38;;;;;;;;;;5034168;28;20082;-73
2023/03/22 04:39:44;;;;;;;12.55;5.43;;;;;;;;;;5017052;28;20481;-74
2023/03/22 04:42:11;;;;;;;8.93;5.32;;;;;;;;;;5025850;28;20049;-74
2023/03/22 04:44:37;;;;;;;10.70;5.22;;;;;;;;;;5036586;28;20041;-74
2023/03/22 04:47:03;;;;;;;11.55;5.60;;;;;;;;;;5039814;28;20041;-73
2023/03/22 04:49:30;;;;;;;11.98;5.53;;;;;;;;;;5031867;28;20049;-73
2023/03/22 04:51:56;;;;;;;11.70;4.90;;;;;;;;;;5024375;28;20045;-73
2023/03/22 04:54:23;;;;;;;10.82;5.53;;;;;;;;;;5037853;28;20061;-74
2023/03/22 04:56:49;;;;;;;11.75;6.50;;;;;;;;;;5024580;28;20136;-73
2023/03/22 04:59:19;;;;;;;13.98;5.55;;;;;;;;;;5038511;28;20067;-74
2023/03/22 05:01:49;;;;;;;12.40;6.10;;;;;;;;;;5014508;28;20058;-74
2023/03/22 05:04:15;;;;;;;11.52;6.95;;;;;;;;;;5032776;28;20711;-73
2023/03/22 05:06:41;;;;;;;9.80;5.78;;;;;;;;;;5014425;28;20048;-73
2023/03/22 05:09:07;;;;;;;11.95;6.75;;;;;;;;;;5014553;28;20049;-73
2023/03/22 05:11:34;;;;;;;11.68;6.65;;;;;;;;;;5010957;28;20049;-73
2023/03/22 05:14:00;;;;;;;12.95;7.63;;;;;;;;;;5033060;28;20136;-73
2023/03/22 05:16:26;;;;;;;11.60;6.53;;;;;;;;;;5019289;28;20416;-73
2023/03/22 05:18:55;;;;;;;12.50;7.47;;;;;;;;;;5039575;28;20373;-74
2023/03/22 05:21:27;;;;;;;10.35;6.90;;;;;;;;;;5009764;28;20056;-73
2023/03/22 05:23:54;;;;;;;12.05;6.55;;;;;;;;;;5012154;28;20445;-74
2023/03/22 05:26:23;;;;;;;14.30;7.32;;;;;;;;;;5038482;28;20041;-74
2023/03/22 05:28:49;;;;;;;15.50;7.28;;;;;;;;;;5011094;28;20041;-74
2023/03/22 05:31:15;;;;;;;14.18;6.97;;;;;;;;;;5017220;28;20055;-74
2023/03/22 05:33:41;;;;;;;9.55;6.35;;;;;;;;;;5039738;28;21005;-74
2023/03/22 05:36:10;;;;;;;13.15;6.65;;;;;;;;;;5013649;28;20057;-74
2023/03/22 05:38:36;;;;;;;17.90;8.55;;;;;;;;;;5035730;28;20429;-74
2023/03/22 05:41:02;;;;;;;13.70;7.35;;;;;;;;;;5050379;28;20048;-74
2023/03/22 05:43:28;;;;;;;13.80;7.72;;;;;;;;;;5030866;28;20518;-74
2023/03/22 05:45:54;;;;;;;16.35;8.25;;;;;;;;;;5018777;28;20126;-74
2023/03/22 05:48:20;;;;;;;13.93;7.85;;;;;;;;;;5041084;28;20044;-74
2023/03/22 05:50:46;;;;;;;13.68;7.28;;;;;;;;;;5020142;28;20041;-74
2023/03/22 05:53:12;;;;;;;13.30;8.20;;;;;;;;;;5017142;28;20044;-74
2023/03/22 05:55:38;;;;;;;15.93;8.82;;;;;;;;;;5036826;28;20739;-74
2023/03/22 05:58:05;;;;;;;17.58;9.48;;;;;;;;;;5042631;28;20045;-74
2023/03/22 06:00:31;;;;;;;13.18;8.82;;;;;;;;;;5019335;28;20128;-74
2023/03/22 06:03:02;;;;;;;15.02;10.38;;;;;;;;;;5030724;28;20041;-74
2023/03/22 06:05:28;;;;;;;17.98;9.95;;;;;;;;;;5044132;28;20060;-74
2023/03/22 06:07:54;;;;;;;14.75;10.02;;;;;;;;;;5016823;28;20734;-75
2023/03/22 06:10:21;;;;;;;14.75;9.55;;;;;;;;;;5023499;28;20045;-73
2023/03/22 06:12:47;;;;;;;17.40;9.80;;;;;;;;;;5016556;28;20057;-74
2023/03/22 06:15:13;;;;;;;17.30;10.35;;;;;;;;;;5019024;28;20534;-74
2023/03/22 06:17:40;;;;;;;18.85;9.35;;;;;;;;;;5023963;28;20045;-74
2023/03/22 06:20:10;;;;;;;16.17;10.73;;;;;;;;;;5043175;28;20507;-74
2023/03/22 06:22:37;;;;;;;19.83;11.73;;;;;;;;;;5035037;28;20516;-73
2023/03/22 06:25:03;;;;;;;19.50;9.98;;;;;;;;;;5016986;28;20350;-74
2023/03/22 06:27:29;;;;;;;17.52;10.43;;;;;;;;;;5033222;28;20048;-74
2023/03/22 06:29:55;;;;;;;16.83;10.70;;;;;;;;;;5022989;28;20049;-74
2023/03/22 06:32:22;;;;;;;19.17;12.23;;;;;;;;;;5030340;28;20052;-74
2023/03/22 06:34:49;;;;;;;20.88;11.60;;;;;;;;;;5037066;28;20440;-74
2023/03/22 06:37:15;;;;;;;18.48;11.25;;;;;;;;;;5042880;28;20128;-75
2023/03/22 06:39:41;;;;;;;19.95;11.40;;;;;;;;;;5024796;28;20053;-73
2023/03/22 06:42:07;;;;;;;18.00;10.40;;;;;;;;;;5040346;28;20041;-74
2023/03/22 06:44:33;;;;;;;16.73;10.98;;;;;;;;;;5023356;28;20700;-73
2023/03/22 06:47:00;;;;;;;18.77;12.00;;;;;;;;;;5022580;28;20044;-73
2023/03/22 06:49:26;;;;;;;16.77;10.25;;;;;;;;;;5029820;28;20549;-73
2023/03/22 06:51:52;;;;;;;19.98;11.25;;;;;;;;;;5025661;28;20045;-73
2023/03/22 06:54:19;;;;;;;14.90;10.65;;;;;;;;;;5038894;28;20053;-72
2023/03/22 06:56:45;;;;;;;15.75;10.13;;;;;;;;;;5019560;28;20060;-73
2023/03/22 06:59:11;;;;;;;18.95;11.80;;;;;;;;;;5022497;28;20377;-73
2023/03/22 07:01:37;;;;;;;17.27;10.52;;;;;;;;;;5030889;28;20041;-74
2023/03/22 07:04:03;;;;;;;16.73;9.75;;;;;;;;;;5019053;28;20088;-74
2023/03/22 07:06:31;;;;;;;19.42;11.57;;;;;;;;;;5038991;28;20041;-74
2023/03/22 07:08:57;;;;;;;19.42;11.82;;;;;;;;;;5051207;28;20092;-73
2023/03/22 07:11:24;;;;;;;19.63;11.52;;;;;;;;;;5036083;28;20072;-73
2023/03/22 07:13:51;;;;;;;15.25;10.75;;;;;;;;;;5024496;28;20057;-74
2023/03/22 07:16:17;;;;;;;16.75;10.55;;;;;;;;;;5021034;28;20053;-73
2023/03/22 07:18:43;;;;;;;12.70;9.50;;;;;;;;;;5041515;28;20048;-74
2023/03/22 07:21:09;;;;;;;12.90;9.15;;;;;;;;;;5031016;28;20511;-74
2023/03/22 07:23:35;;;;;;;19.30;10.88;;;;;;;;;;5015929;28;20065;-74
2023/03/22 07:26:01;;;;;;;18.63;9.00;;;;;;;;;;5018336;28;20478;-73
2023/03/22 07:28:27;;;;;;;20.05;10.10;;;;;;;;;;5028496;28;20041;-74
2023/03/22 07:31:01;;;;;;;20.38;10.45;;;;;;;;;;5027628;28;20072;-74
2023/03/22 07:33:27;;;;;;;15.68;9.98;;;;;;;;;;5031006;28;20056;-74
2023/03/22 07:35:53;;;;;;;16.02;8.05;;;;;;;;;;5021925;28;20172;-74
2023/03/22 07:38:19;;;;;;;18.00;10.05;;;;;;;;;;5044742;28;20080;-74
2023/03/22 07:40:45;;;;;;;16.45;8.98;;;;;;;;;;5014439;28;20073;-73
2023/03/22 07:43:12;;;;;;;22.55;8.57;;;;;;;;;;5020740;28;20064;-74
2023/03/22 07:45:39;;;;;;;18.17;9.30;;;;;;;;;;5038281;28;20046;-74
2023/03/22 07:48:05;;;;;;;18.25;8.23;;;;;;;;;;5043970;28;20041;-74
2023/03/22 07:50:31;;;;;;;15.15;8.75;;;;;;;;;;5019787;28;20086;-74
2023/03/22 07:52:58;;;;;;;14.30;7.78;;;;;;;;;;5015636;28;20400;-74
2023/03/22 07:55:24;;;;;;;15.90;7.03;;;;;;;;;;5037071;28;20056;-74
2023/03/22 07:57:50;;;;;;;17.50;8.23;;;;;;;;;;5048641;28;20047;-74
2023/03/22 08:00:16;;;;;;;13.75;7.53;;;;;;;;;;5015963;28;20053;-74
2023/03/22 08:02:44;;;;;;;15.52;8.50;;;;;;;;;;5041213;28;20187;-74
2023/03/22 08:05:10;;;;;;;14.63;7.00;;;;;;;;;;5040873;28;20501;-75
2023/03/22 08:07:36;;;;;;;17.85;7.65;;;;;;;;;;5027154;28;20607;-75
2023/03/22 08:10:03;;;;;;;11.98;7.43;;;;;;;;;;5038975;28;20049;-75
2023/03/22 08:12:31;;;;;;;13.55;6.93;;;;;;;;;;5022885;28;20068;-74
2023/03/22 08:14:57;;;;;;;13.02;7.13;;;;;;;;;;5025063;28;20091;-74
2023/03/22 08:17:24;;;;;;;15.02;6.93;;;;;;;;;;5040369;28;20048;-74
2023/03/22 08:19:53;;;;;;;11.05;6.25;;;;;;;;;;5022515;28;20049;-73
2023/03/22 08:22:22;;;;;;;14.88;6.30;;;;;;;;;;5020073;28;20053;-75
2023/03/22 08:24:48;;;;;;;11.48;5.82;;;;;;;;;;5021085;28;20131;-75
2023/03/22 08:27:14;;;;;;;12.90;5.93;;;;;;;;;;5029715;28;20095;-74
2023/03/22 08:29:40;;;;;;;13.52;5.82;;;;;;;;;;5027287;28;20698;-75
2023/03/22 08:32:07;;;;;;;13.18;6.00;;;;;;;;;;5033248;28;20038;-74
2023/03/22 08:34:36;;;;;;;13.82;6.30;;;;;;;;;;5019288;28;20725;-75
2023/03/22 08:37:03;;;;;;;11.57;6.30;;;;;;;;;;5013657;28;20508;-74
2023/03/22 08:39:29;;;;;;;15.85;6.47;;;;;;;;;;5023943;28;20045;-75
2023/03/22 08:41:55;;;;;;;13.15;6.00;;;;;;;;;;5036683;28;20029;-75
2023/03/22 08:44:21;;;;;;;13.60;5.47;;;;;;;;;;5011959;28;20088;-74
2023/03/22 08:46:48;;;;;;;16.83;6.50;;;;;;;;;;5018602;28;20128;-75
2023/03/22 08:49:14;;;;;;;13.65;5.32;;;;;;;;;;5013446;28;20046;-74
2023/03/22 08:51:40;;;;;;;13.05;6.03;;;;;;;;;;5026082;28;20125;-75
2023/03/22 08:54:06;;;;;;;11.07;5.82;;;;;;;;;;5031935;28;20099;-74
2023/03/22 08:56:36;;;;;;;15.75;5.38;;;;;;;;;;5041617;28;20096;-74
2023/03/22 08:59:03;;;;;;;11.90;5.53;;;;;;;;;;5042839;28;20064;-74
2023/03/22 09:01:30;;;;;;;12.60;4.80;;;;;;;;;;5021186;28;20440;-74
2023/03/22 09:03:56;;;;;;;13.55;6.00;;;;;;;;;;5031766;28;20056;-74
2023/03/22 09:06:22;;;;;;;12.00;5.75;;;;;;;;;;5010581;28;21318;-74
2023/03/22 09:08:51;;;;;;;11.98;5.72;;;;;;;;;;5021125;28;20485;-74
2023/03/22 09:11:17;;;;;;;13.27;6.18;;;;;;;;;;5010847;28;20580;-74
2023/03/22 09:13:43;;;;;;;13.98;6.45;;;;;;;;;;5035676;28;20040;-74
2023/03/22 09:16:10;;;;;;;12.35;5.90;;;;;;;;;;5013700;28;20080;-74
2023/03/22 09:18:36;;;;;;;14.35;6.03;;;;;;;;;;5031171;28;20179;-74
2023/03/22 09:21:03;;;;;;;12.43;6.30;;;;;;;;;;5030195;28;20033;-75
2023/03/22 09:23:31;;;;;;;12.25;5.80;;;;;;;;;;5029067;28;20127;-73
2023/03/22 09:25:59;;;;;;;18.52;6.63;;;;;;;;;;5014485;28;20116;-75
2023/03/22 09:28:26;;;;;;;14.02;6.03;;;;;;;;;;5022130;28;20049;-75
2023/03/22 09:30:52;;;;;;;11.77;6.35;;;;;;;;;;5017670;28;20060;-75
2023/03/22 09:33:18;;;;;;;13.40;5.85;;;;;;;;;;5033493;28;20056;-74
2023/03/22 09:35:44;;;;;;;8.73;5.57;;;;;;;;;;5038802;28;20057;-75
2023/03/22 09:38:11;;;;;;;8.25;4.97;;;;;;;;;;5030354;28;20047;-75
2023/03/22 09:40:43;;;;;;;12.63;5.07;;;;;;;;;;5024205;28;20041;-75
2023/03/22 09:43:11;;;;;;;11.10;5.43;;;;;;;;;;5015916;28;20053;-74
2023/03/22 09:45:46;;;;;;;12.05;6.40;;;;;;;;;;5034273;28;20166;-74
2023/03/22 09:48:17;;;;;;;12.13;5.95;;;;;;;;;;5017303;28;20134;-75
2023/03/22 09:50:46;;;;;;;10.90;5.63;;;;;;;;;;5036951;28;20068;-74
2023/03/22 09:53:13;;;;;;;14.70;5.80;;;;;;;;;;5011974;28;20093;-75
2023/03/22 09:55:42;;;;;;;13.48;6.50;;;;;;;;;;5025710;28;20053;-74
2023/03/22 09:58:11;;;;;;;11.98;5.25;;;;;;;;;;5013239;28;20045;-75
2023/03/22 10:00:45;;;;;;;10.75;5.50;;;;;;;;;;5031564;28;20400;-74
2023/03/22 10:03:16;;;;;;;10.10;5.68;;;;;;;;;;5023518;28;20050;-75
2023/03/22 10:05:57;;;;;;;13.18;5.05;;;;;;;;;;5031898;28;20114;-75
2023/03/22 10:08:29;;;;;;;11.02;5.20;;;;;;;;;;5034345;28;20050;-75
2023/03/22 10:10:56;;;;;;;11.88;5.65;;;;;;;;;;5017642;28;20397;-75
2023/03/22 10:13:31;;;;;;;12.57;5.30;;;;;;;;;;5027162;28;20469;-75
2023/03/22 10:15:59;;;;;;;9.82;5.30;;;;;;;;;;5036760;28;20032;-75
2023/03/22 10:18:31;;;;;;;11.98;5.68;;;;;;;;;;5025008;28;20057;-75
2023/03/22 10:20:57;;;;;;;9.93;4.93;;;;;;;;;;5016081;28;20041;-75
2023/03/22 10:23:29;;;;;;;11.52;5.72;;;;;;;;;;5036179;28;20113;-75
2023/03/22 10:25:56;;;;;;;10.15;4.90;;;;;;;;;;5046733;28;20042;-74
2023/03/22 10:28:24;;;;;;;9.55;4.97;;;;;;;;;;5032147;28;20565;-74
2023/03/22 10:30:53;;;;;;;12.10;6.07;;;;;;;;;;5023793;28;20053;-74
2023/03/22 10:33:28;;;;;;;14.20;6.20;;;;;;;;;;5023298;28;20045;-75
2023/03/22 10:35:55;;;;;;;15.52;6.90;;;;;;;;;;5017762;28;20053;-74
2023/03/22 10:38:23;;;;;;;10.20;5.25;;;;;;;;;;5031972;28;20505;-74
2023/03/22 10:40:49;;;;;;;11.07;5.50;;;;;;;;;;5015753;28;20563;-75
2023/03/22 10:43:19;;;;;;;12.98;6.03;;;;;;;;;;5037501;28;20045;-75
2023/03/22 10:45:45;;;;;;;13.38;5.82;;;;;;;;;;5037103;28;20136;-74
2023/03/22 10:48:29;;;;;;;11.73;5.65;;;;;;;;;;5018387;28;20335;-75
2023/03/22 10:50:56;;;;;;;10.95;5.07;;;;;;;;;;5041424;28;20090;-75
2023/03/22 10:53:26;;;;;;;12.45;5.32;;;;;;;;;;5020210;28;20056;-75
2023/03/22 10:55:52;;;;;;;8.75;5.22;;;;;;;;;;5014647;28;20073;-75
2023/03/22 10:58:20;;;;;;;12.55;5.60;;;;;;;;;;5020398;28;20045;-74
2023/03/22 11:00:49;;;;;;;9.50;5.45;;;;;;;;;;5016289;28;20045;-75
2023/03/22 11:03:27;;;;;;;12.95;6.68;;;;;;;;;;5041962;28;20048;-75
2023/03/22 11:06:10;;;;;;;11.23;5.68;;;;;;;;;;5033717;28;20037;-75
2023/03/22 11:08:39;;;;;;;15.65;6.32;;;;;;;;;;5038475;28;20055;-75
2023/03/22 11:11:06;;;;;;;11.90;5.78;;;;;;;;;;5027514;28;20053;-75
2023/03/22 11:13:33;;;;;;;15.07;6.13;;;;;;;;;;5024996;28;20037;-75
2023/03/22 11:16:01;;;;;;;10.13;5.50;;;;;;;;;;5036126;28;20493;-75
2023/03/22 11:18:31;;;;;;;8.95;5.88;;;;;;;;;;5027498;28;20056;-75
2023/03/22 11:20:59;;;;;;;9.25;6.15;;;;;;;;;;5035808;28;20044;-75
2023/03/22 11:23:27;;;;;;;10.65;5.93;;;;;;;;;;5034577;28;20512;-76
2023/03/22 11:25:55;;;;;;;11.90;6.53;;;;;;;;;;5013652;28;20045;-75
2023/03/22 11:28:32;;;;;;;12.25;6.05;;;;;;;;;;5048674;28;20480;-75
2023/03/22 11:31:02;;;;;;;13.02;6.03;;;;;;;;;;5019772;28;20053;-75
2023/03/22 11:33:29;;;;;;;9.30;5.45;;;;;;;;;;5022850;28;20129;-75
2023/03/22 11:35:59;;;;;;;10.82;5.65;;;;;;;;;;5043872;28;20474;-75
2023/03/22 11:38:28;;;;;;;9.10;5.70;;;;;;;;;;5030566;28;20045;-75
2023/03/22 11:41:15;;;;;;;11.75;5.30;;;;;;;;;;5021539;28;20634;-75
2023/03/22 11:43:47;;;;;;;11.82;5.18;;;;;;;;;;5029672;28;20052;-75
2023/03/22 11:46:15;;;;;;;11.27;4.90;;;;;;;;;;5039553;28;20053;-75
2023/03/22 11:48:42;;;;;;;8.88;4.82;;;;;;;;;;5020290;28;20037;-75
2023/03/22 11:51:12;;;;;;;11.85;4.80;;;;;;;;;;5018818;28;20052;-75
2023/03/22 11:53:41;;;;;;;12.13;4.75;;;;;;;;;;5024999;28;20140;-74
2023/03/22 11:56:08;;;;;;;10.93;4.63;;;;;;;;;;5020662;28;20493;-75
2023/03/22 11:58:37;;;;;;;8.23;4.18;;;;;;;;;;5038169;28;20042;-75
2023/03/22 12:01:04;;;;;;;7.65;4.03;;;;;;;;;;5017373;28;20037;-75
2023/03/22 12:03:33;;;;;;;10.85;4.72;;;;;;;;;;5016223;28;20489;-75
2023/03/22 12:06:04;;;;;;;8.05;4.00;;;;;;;;;;5020063;28;20064;-75
2023/03/22 12:08:41;;;;;;;10.18;4.40;;;;;;;;;;5017295;28;20108;-75
2023/03/22 12:11:20;;;;;;;13.40;5.60;;;;;;;;;;5031964;28;20037;-75
2023/03/22 12:13:49;;;;;;;9.45;4.28;;;;;;;;;;5018030;28;20511;-75
2023/03/22 12:16:20;;;;;;;12.10;4.90;;;;;;;;;;5019761;28;20128;-75
2023/03/22 12:18:53;;;;;;;10.82;4.47;;;;;;;;;;5014400;28;20053;-75
2023/03/22 12:21:19;;;;;;;10.32;4.25;;;;;;;;;;5045864;28;20048;-75
2023/03/22 12:23:45;;;;;;;17.42;5.20;;;;;;;;;;5045728;28;20044;-75
2023/03/22 12:26:14;;;;;;;16.20;5.25;;;;;;;;;;5028997;28;20473;-75
2023/03/22 12:28:40;;;;;;;8.35;3.88;;;;;;;;;;5037575;28;20043;-74
2023/03/22 12:31:13;;;;;;;8.82;4.95;;;;;;;;;;5043116;28;20116;-74
2023/03/22 12:33:47;;;;;;;15.90;4.78;;;;;;;;;;5039712;28;20440;-74
2023/03/22 12:36:20;;;;;;;13.65;4.45;;;;;;;;;;5016843;28;20045;-75
2023/03/22 12:38:51;;;;;;;13.70;4.85;;;;;;;;;;5042746;28;20084;-75
2023/03/22 12:41:25;;;;;;;11.68;4.82;;;;;;;;;;5018618;28;20370;-74
2023/03/22 12:43:51;;;;;;;16.23;5.07;;;;;;;;;;5016310;28;20049;-75
2023/03/22 12:46:19;;;;;;;16.80;5.30;;;;;;;;;;5018109;28;20501;-74
2023/03/22 12:48:48;;;;;;;9.77;4.40;;;;;;;;;;5038178;28;20123;-74
2023/03/22 12:51:14;;;;;;;16.58;5.72;;;;;;;;;;5015674;28;20076;-74
2023/03/22 12:53:46;;;;;;;12.60;4.90;;;;;;;;;;5017567;28;20118;-74
2023/03/22 12:56:14;;;;;;;10.13;5.05;;;;;;;;;;5030123;28;20191;-74
2023/03/22 12:58:41;;;;;;;11.30;5.15;;;;;;;;;;5050782;28;20037;-74
2023/03/22 13:01:17;;;;;;;10.60;5.10;;;;;;;;;;5041561;28;20041;-75
2023/03/22 13:03:50;;;;;;;14.95;5.78;;;;;;;;;;5024360;28;20602;-75
2023/03/22 13:06:16;;;;;;;;;;;;;;;;;;5021284;28;20515;-75
2023/03/22 13:09:01;;;;;;;18.75;6.90;;;;;;;;;;5031659;28;20054;-75
2023/03/22 13:11:27;;;;;;;21.73;6.90;;;;;;;;;;5052470;28;20045;-73
2023/03/22 13:13:53;;;;;;;15.70;5.90;;;;;;;;;;5012743;28;20045;-75
2023/03/22 13:16:21;;;;;;;13.80;6.07;;;;;;;;;;5013362;28;20038;-75
2023/03/22 13:18:47;;;;;;;17.45;7.10;;;;;;;;;;5013753;28;20056;-75
2023/03/22 13:21:21;;;;;;;15.32;6.10;;;;;;;;;;5019077;28;20135;-74
2023/03/22 13:24:01;;;;;;;13.43;5.25;;;;;;;;;;5032609;28;20072;-74
2023/03/22 13:26:31;;;;;;;12.77;5.20;;;;;;;;;;5014734;28;20045;-73
2023/03/22 13:28:58;;;;;;;17.48;5.80;;;;;;;;;;5020292;28;20038;-74
2023/03/22 13:31:51;;;;;;;13.45;5.78;;;;;;;;;;5044368;28;20049;-74
2023/03/22 13:34:21;;;;;;;11.80;5.03;;;;;;;;;;5039395;28;20049;-74
2023/03/22 13:36:49;;;;;;;13.55;5.57;;;;;;;;;;5025378;28;21449;-75
2023/03/22 13:39:16;;;;;;;19.02;6.25;;;;;;;;;;5036545;28;20049;-74
2023/03/22 13:41:44;;;;;;;11.73;6.07;;;;;;;;;;5021494;28;20121;-75
2023/03/22 13:44:25;;;;;;;16.20;5.50;;;;;;;;;;5013583;28;21973;-75
2023/03/22 13:46:51;;;;;;;11.07;5.07;;;;;;;;;;5015112;28;20057;-75
2023/03/22 13:49:23;;;;;;;11.13;5.20;;;;;;;;;;5030515;28;20038;-75
2023/03/22 13:51:50;;;;;;;13.30;5.25;;;;;;;;;;5032848;28;20104;-75
2023/03/22 13:54:18;;;;;;;18.73;5.90;;;;;;;;;;5032146;28;20057;-75
2023/03/22 13:56:44;;;;;;;16.52;5.65;;;;;;;;;;5024668;28;20561;-75
2023/03/22 13:59:23;;;;;;;14.05;5.43;;;;;;;;;;5039756;28;20102;-74
2023/03/22 14:02:09;;;;;;;14.90;6.13;;;;;;;;;;5018478;28;20052;-74
2023/03/22 14:04:44;;;;;;;15.02;5.60;;;;;;;;;;5018685;28;20132;-75
2023/03/22 14:07:20;;;;;;;15.00;5.22;;;;;;;;;;5017214;28;20047;-75
2023/03/22 14:09:52;;;;;;;17.40;6.32;;;;;;;;;;5026937;28;20056;-75
2023/03/22 14:12:24;;;;;;;11.55;5.20;;;;;;;;;;5052362;28;20057;-75
2023/03/22 14:14:57;;;;;;;11.95;5.32;;;;;;;;;;5031999;28;20042;-75
2023/03/22 14:17:42;;;;;;;14.10;5.45;;;;;;;;;;5033545;28;20049;-75
2023/03/22 14:20:12;;;;;;;13.13;6.90;;;;;;;;;;5039097;28;20038;-75
2023/03/22 14:22:41;;;;;;;12.48;5.68;;;;;;;;;;5025855;28;20484;-75
2023/03/22 14:25:08;;;;;;;8.70;5.15;;;;;;;;;;5050177;28;20049;-75
2023/03/22 14:27:35;;;;;;;12.30;5.63;;;;;;;;;;5016735;28;20064;-75
2023/03/22 14:30:01;;;;;;;14.88;5.57;;;;;;;;;;5029213;28;20041;-75
2023/03/22 14:32:29;;;;;;;11.93;5.10;;;;;;;;;;5030568;28;20057;-75
2023/03/22 14:35:02;;;;;;;15.70;7.13;;;;;;;;;;5016251;28;20065;-74
2023/03/22 14:37:28;;;;;;;12.20;6.40;;;;;;;;;;5019227;28;20077;-75
2023/03/22 14:39:54;;;;;;;8.68;5.07;;;;;;;;;;5051318;28;20487;-75